Flight Track Log - Related Links

Times and Time Zones

All times are in EDT time to prevent confusion due to time zone crossing. See the N58EV flight status page for this flight to view local times or setup timezone preferences in your user account.

Time Position Orientation Groundspeed Altitude Reporting Facility
EDT Latitude Longitude Course Direction KTS MPH feet Rate Location/Type
Wed 05:03:39 PM 40.1708 -84.5406 159° South 132 152 2,800  Level Indianapolis Center
Wed 05:04:34 PM 40.1369 -84.5233 159° South 152 175 3,700 941 Climbing Indianapolis Center
Wed 05:05:21 PM 40.1147 -84.5106 156° South 145 167 4,400 991 Climbing Indianapolis Center
Wed 05:06:23 PM 40.0769 -84.4939 161° South 145 167 5,500 774 Climbing Indianapolis Center
Wed 05:07:25 PM 40.0297 -84.4725 161° South 145 167 6,000 405 Climbing Indianapolis Center
Wed 05:07:37 PM 40.0186 -84.4689 166° South 173 199 6,000  Level Indianapolis Center
Wed 05:08:27 PM 39.9814 -84.4508 160° South 169 194 6,000 309 Level Indianapolis Center
Wed 05:10:32 PM 39.8828 -84.4111 163° South 184 212 6,900 595 Climbing Indianapolis Center
Wed 05:14:40 PM 39.7175 -84.3383 162° South 150 173 9,700 600 Climbing Indianapolis Center
Wed 05:15:42 PM 39.6758 -84.3203 162° South 153 176 10,000 97 Climbing Indianapolis Center
Wed 05:17:46 PM 39.5686 -84.2742 162° South 182 209 10,000  Level Indianapolis Center
Wed 05:18:48 PM 39.5203 -84.2528 161° South 183 211 10,000 353 Level Indianapolis Center
Wed 05:19:00 PM 39.4841 -84.2193 162° South  Level FlightAware Approximate
Wed 05:20:00 PM 39.4358 -84.1985 162° South  Level FlightAware Approximate
Wed 05:20:53 PM 39.4333 -84.2153 162° South 165 190 11,100  Level Indianapolis Center
Wed 05:22:57 PM 39.3344 -84.1725 161° South 187 215 11,000 -32 Descending Indianapolis Center
Wed 05:23:59 PM 39.2744 -84.1461 161° South 187 215 11,000  Level Indianapolis Center
Wed 05:25:01 PM 39.2239 -84.1264 163° South 188 216 11,000  Level Indianapolis Center
Wed 05:27:05 PM 39.1219 -84.0825 162° South 191 220 11,000  Level Indianapolis Center
Wed 05:28:07 PM 39.0714 -84.0583 160° South 192 221 11,000  Level Indianapolis Center
Wed 05:30:12 PM 38.9594 -84.0117 162° South 192 221 11,000  Level Indianapolis Center
Wed 05:31:14 PM 38.9083 -83.9897 162° South 193 222 11,000  Level Indianapolis Center
Wed 05:34:20 PM 38.7569 -83.9244 158° South 192 221 11,000  Level Indianapolis Center
Wed 05:35:22 PM 38.6961 -83.8981 161° South 192 221 11,000  Level Indianapolis Center
Wed 05:37:26 PM 38.5964 -83.8575 162° South 192 221 11,000  Level Indianapolis Center
Wed 05:40:32 PM 38.4358 -83.7875 161° South 192 221 11,000  Level Indianapolis Center
Wed 05:42:37 PM 38.3328 -83.7450 162° South 193 222 11,000  Level Indianapolis Center
Wed 05:44:41 PM 38.2208 -83.6983 161° South 194 223 11,000  Level Indianapolis Center
Wed 05:45:43 PM 38.1686 -83.6775 163° South 194 223 11,000  Level Indianapolis Center
Wed 05:46:45 PM 38.1169 -83.6544 161° South 194 223 11,000  Level Indianapolis Center
Wed 05:48:49 PM 38.0117 -83.6125 161° South 197 227 11,000  Level Indianapolis Center
Wed 05:49:51 PM 37.9497 -83.5858 161° South 197 227 11,000  Level Indianapolis Center
Wed 05:50:53 PM 37.8983 -83.5617 160° South 197 227 11,000  Level Indianapolis Center
Wed 05:52:00 PM 37.8448 -83.5395 162° South  Level Estimated
Wed 05:52:58 PM 37.7936 -83.5189 162° South 197 227 11,000  Level Indianapolis Center
Wed 05:54:00 PM 37.7406 -83.4975 162° South 197 227 11,000  Level Indianapolis Center
Wed 05:55:02 PM 37.6797 -83.4719 162° South 197 227 11,000  Level Indianapolis Center
Wed 05:56:04 PM 37.6272 -83.4508 162° South 197 227 11,000  Level Indianapolis Center
Wed 05:57:06 PM 37.5750 -83.4292 162° South 197 227 11,000  Level Indianapolis Center
Wed 05:58:08 PM 37.5231 -83.4072 161° South 197 227 11,000  Level Indianapolis Center
Wed 05:59:10 PM 37.4708 -83.3853 162° South 197 227 11,000  Level Indianapolis Center
Wed 06:00:12 PM 37.4094 -83.3611 163° South 197 227 11,000  Level Indianapolis Center
Wed 06:01:14 PM 37.3569 -83.3392 162° South 197 227 11,000  Level Indianapolis Center
Wed 06:02:16 PM 37.3053 -83.3181 162° South 197 227 11,000  Level Indianapolis Center
Wed 06:05:23 PM 37.1403 -83.2511 156° South 197 227 11,000  Level Indianapolis Center
Wed 06:06:25 PM 37.0875 -83.2300 162° South 197 227 11,000  Level Indianapolis Center
Wed 06:07:27 PM 37.0356 -83.2097 163° South 197 227 11,000  Level Indianapolis Center
Wed 06:09:31 PM 36.9297 -83.1667 162° South 198 228 11,000  Level Indianapolis Center
Wed 06:10:33 PM 36.8689 -83.1417 162° South 198 228 11,000  Level Indianapolis Center
Wed 06:11:35 PM 36.8164 -83.1203 162° South 198 228 11,000  Level Indianapolis Center
Wed 06:12:37 PM 36.7636 -83.0989 162° South 198 228 11,000  Level Indianapolis Center
Wed 06:13:39 PM 36.7106 -83.0789 163° South 198 228 11,000 48 Level Indianapolis Center
Wed 06:14:41 PM 36.6489 -83.0536 162° South 198 228 11,100  Climbing Indianapolis Center
Wed 06:17:08 PM 36.5231 -83.0053 163° South 205 236 11,000 -32 Descending Atlanta Center
Wed 06:17:48 PM 36.4897 -82.9903 160° South 199 229 11,000  Level Indianapolis Center
Wed 06:18:50 PM 36.4372 -82.9683 161° South 199 229 11,000  Level Indianapolis Center
Wed 06:19:52 PM 36.3739 -82.9447 163° South 200 230 11,000  Level Indianapolis Center
Wed 06:20:54 PM 36.3208 -82.9225 161° South 200 230 11,000  Level Indianapolis Center
Wed 06:22:08 PM 36.2575 -82.9006 164° South 205 236 11,000  Level Atlanta Center
Wed 06:24:08 PM 36.1528 -82.8583 162° South 205 236 11,000  Level Atlanta Center
Wed 06:25:08 PM 36.0983 -82.8361 162° South 205 236 11,000 -50 Level Atlanta Center
Wed 06:26:08 PM 36.0439 -82.8139 162° South 205 236 10,900  Descending Atlanta Center
Wed 06:27:08 PM 35.9853 -82.7917 163° South 205 236 11,000 -160 Climbing Atlanta Center
Wed 06:31:08 PM 35.7631 -82.7053 162° South 210 242 10,100 -200 Descending Atlanta Center
Wed 06:32:08 PM 35.7108 -82.6833 161° South 205 236 10,000 -50 Descending Atlanta Center
Wed 06:33:08 PM 35.6625 -82.6661 164° South 193 222 10,000  Level Atlanta Center
Wed 06:34:08 PM 35.6122 -82.6439 160° South 187 215 10,000  Level Atlanta Center
Wed 06:35:08 PM 35.5619 -82.6244 163° South 193 222 10,000  Level Atlanta Center
Wed 06:36:08 PM 35.5117 -82.6050 163° South 193 222 10,000  Level Atlanta Center

Login

Don't have an account? Register now (free) for customized features, flight alerts, and more!